Time;durP1;ratioP1;P1;durP2;ratioP2;P2;SDS_P1;SDS_P2;PMS_P1;PMS_P2;Temp;Humidity;BMP_temperature;BMP_pressure;BME280_temperature;BME280_humidity;BME280_pressure;Samples;Min_cycle;Max_cycle;Signal;HPM_P1;HPM_P2
2023/05/16 00:00:16;;;;;;;9.32;1.55;;;8.90;99.90;;;;;;5099947;28;20059;-68
2023/05/16 00:02:42;;;;;;;16.73;1.23;;;8.90;99.90;;;;;;5099964;27;20027;-68
2023/05/16 00:05:09;;;;;;;9.90;1.13;;;8.80;99.90;;;;;;5091932;28;20043;-68
2023/05/16 00:07:35;;;;;;;8.90;1.17;;;8.80;99.90;;;;;;5103200;28;20044;-68
2023/05/16 00:10:01;;;;;;;11.20;1.35;;;8.70;99.90;;;;;;5097734;28;20506;-68
2023/05/16 00:12:28;;;;;;;14.38;1.17;;;8.70;99.90;;;;;;5098625;28;20039;-68
2023/05/16 00:14:54;;;;;;;7.35;1.02;;;8.70;99.90;;;;;;5095152;28;20342;-69
2023/05/16 00:17:20;;;;;;;12.48;1.45;;;8.60;99.90;;;;;;5095430;28;20116;-70
2023/05/16 00:19:47;;;;;;;10.45;1.48;;;8.60;99.90;;;;;;5099585;28;20028;-69
2023/05/16 00:22:14;;;;;;;10.18;1.20;;;8.60;99.90;;;;;;5100395;28;20031;-68
2023/05/16 00:24:40;;;;;;;8.80;0.90;;;8.50;99.90;;;;;;5099102;28;20043;-71
2023/05/16 00:27:06;;;;;;;12.60;1.33;;;8.50;99.90;;;;;;5094039;28;20020;-68
2023/05/16 00:29:34;;;;;;;11.73;1.25;;;8.50;99.90;;;;;;5097558;28;20035;-70
2023/05/16 00:32:02;;;;;;;13.93;1.70;;;8.40;99.90;;;;;;5096103;28;20624;-68
2023/05/16 00:34:28;;;;;;;15.85;1.33;;;8.40;99.90;;;;;;5098821;28;20032;-68
2023/05/16 00:36:53;;;;;;;8.60;1.38;;;8.30;99.90;;;;;;5100659;28;20042;-69
2023/05/16 00:39:25;;;;;;;5.47;0.85;;;8.30;99.90;;;;;;5100068;28;20028;-69
2023/05/16 00:41:54;;;;;;;10.57;1.52;;;8.30;99.90;;;;;;5096832;28;20032;-67
2023/05/16 00:44:22;;;;;;;18.90;2.33;;;8.20;99.90;;;;;;5094388;28;20106;-68
2023/05/16 00:46:48;;;;;;;12.98;1.05;;;8.30;99.90;;;;;;5099611;28;20035;-73
2023/05/16 00:49:17;;;;;;;8.68;1.17;;;8.20;99.90;;;;;;5099664;28;20023;-69
2023/05/16 00:51:51;;;;;;;8.48;1.05;;;8.20;99.90;;;;;;5095889;28;20039;-68
2023/05/16 00:54:19;;;;;;;11.15;1.35;;;8.20;99.90;;;;;;5093172;28;20488;-69
2023/05/16 00:56:45;;;;;;;11.85;0.98;;;8.10;99.90;;;;;;5094675;28;20162;-69
2023/05/16 00:59:14;;;;;;;11.38;1.85;;;8.10;99.90;;;;;;5094876;28;20487;-68
2023/05/16 01:01:49;;;;;;;8.82;0.95;;;8.10;99.90;;;;;;5097521;28;20787;-68
2023/05/16 01:04:15;;;;;;;9.65;1.52;;;8.00;99.90;;;;;;5091702;28;20028;-68
2023/05/16 01:06:44;;;;;;;7.57;1.05;;;8.00;99.90;;;;;;5099570;28;20039;-67
2023/05/16 01:09:13;;;;;;;12.90;1.43;;;8.00;99.90;;;;;;5092270;28;20119;-69
2023/05/16 01:12:31;;;;;;;16.38;2.20;;;8.00;99.90;;;;;;5088285;28;20026;-68
2023/05/16 01:15:18;;;;;;;3.55;0.70;;;8.00;99.90;;;;;;5051676;28;20085;-70
2023/05/16 01:18:04;;;;;;;7.93;1.92;;;7.90;99.90;;;;;;5085074;28;20032;-69
2023/05/16 01:20:48;;;;;;;9.73;0.95;;;7.90;99.90;;;;;;5091957;28;20024;-67
2023/05/16 01:23:45;;;;;;;11.90;1.60;;;7.90;99.90;;;;;;5092483;28;20086;-67
2023/05/16 01:26:20;;;;;;;15.82;2.15;;;7.90;99.90;;;;;;5087015;28;20089;-68
2023/05/16 01:28:47;;;;;;;12.38;1.35;;;7.90;99.90;;;;;;5092212;28;20036;-69
2023/05/16 01:31:13;;;;;;;10.38;1.63;;;7.90;99.90;;;;;;5091823;28;20036;-68
2023/05/16 01:33:38;;;;;;;17.73;2.08;;;7.90;99.90;;;;;;5091161;28;20369;-68
2023/05/16 01:36:30;;;;;;;9.55;0.90;;;7.80;99.90;;;;;;5088200;28;20067;-69
2023/05/16 01:39:26;;;;;;;13.20;2.05;;;7.80;99.90;;;;;;5090654;28;20119;-69
2023/05/16 01:42:18;;;;;;;8.95;1.50;;;7.80;99.90;;;;;;5089248;28;20032;-68
2023/05/16 01:44:52;;;;;;;4.40;1.30;;;7.80;99.90;;;;;;5080140;28;20495;-67
2023/05/16 01:47:21;;;;;;;16.17;1.77;;;7.80;99.90;;;;;;5085803;28;20028;-67
2023/05/16 01:50:12;;;;;;;13.35;1.60;;;7.80;99.90;;;;;;5095234;28;20108;-68
2023/05/16 01:52:41;;;;;;;7.57;1.10;;;7.70;99.90;;;;;;5123919;27;20031;-68
2023/05/16 01:55:15;;;;;;;7.60;1.40;;;7.70;99.90;;;;;;5089881;28;20031;-68
2023/05/16 01:57:44;;;;;;;15.13;1.40;;;7.70;99.90;;;;;;5085162;28;20028;-70
2023/05/16 02:00:13;;;;;;;18.17;1.80;;;7.70;99.90;;;;;;5086898;28;20089;-68
2023/05/16 02:02:39;;;;;;;9.32;1.15;;;7.60;99.90;;;;;;5092699;28;20028;-71
2023/05/16 02:05:05;;;;;;;6.43;1.00;;;7.60;99.90;;;;;;5092818;28;20111;-69
2023/05/16 02:07:31;;;;;;;8.60;1.38;;;7.60;99.90;;;;;;5098961;28;20031;-69
2023/05/16 02:09:56;;;;;;;10.93;0.98;;;7.50;99.90;;;;;;5096554;28;20031;-68
2023/05/16 02:12:23;;;;;;;9.60;1.58;;;7.50;99.90;;;;;;5090126;28;20039;-69
2023/05/16 02:14:49;;;;;;;10.75;2.33;;;7.40;99.90;;;;;;5088189;28;20032;-68
2023/05/16 02:17:20;;;;;;;11.13;1.90;;;7.40;99.90;;;;;;5091711;28;20035;-68
2023/05/16 02:19:46;;;;;;;7.50;1.60;;;7.40;99.90;;;;;;5096802;28;20051;-68
2023/05/16 02:22:11;;;;;;;5.22;1.38;;;7.40;99.90;;;;;;5091802;28;20071;-68
2023/05/16 02:24:46;;;;;;;7.78;0.98;;;7.40;99.90;;;;;;5099458;28;20110;-67
2023/05/16 02:27:12;;;;;;;5.05;1.08;;;7.30;99.90;;;;;;5091739;28;20028;-67
2023/05/16 02:29:37;;;;;;;5.03;1.15;;;7.30;99.90;;;;;;5099157;28;20039;-68
2023/05/16 02:32:03;;;;;;;10.88;1.40;;;7.30;99.90;;;;;;5085318;28;20471;-69
2023/05/16 02:34:29;;;;;;;5.97;0.73;;;7.30;99.90;;;;;;5090109;28;20032;-68
2023/05/16 02:36:54;;;;;;;17.20;1.60;;;7.30;99.90;;;;;;5090890;28;20078;-67
2023/05/16 02:39:23;;;;;;;8.82;1.90;;;7.30;99.90;;;;;;5092181;28;20077;-69
2023/05/16 02:41:51;;;;;;;10.68;1.00;;;7.20;99.90;;;;;;5096369;28;20027;-68
2023/05/16 02:44:19;;;;;;;10.98;1.67;;;7.20;99.90;;;;;;5093304;28;20036;-68
2023/05/16 02:46:45;;;;;;;7.25;1.00;;;7.20;99.90;;;;;;5091210;28;20068;-67
2023/05/16 02:49:19;;;;;;;8.50;1.83;;;7.20;99.90;;;;;;5088822;28;20422;-68
2023/05/16 02:51:48;;;;;;;7.55;1.70;;;7.20;99.90;;;;;;5094504;28;20028;-67
2023/05/16 02:54:17;;;;;;;4.45;0.75;;;7.20;99.90;;;;;;5091888;28;20051;-68
2023/05/16 02:56:45;;;;;;;13.70;1.23;;;7.20;99.90;;;;;;5093826;28;20049;-68
2023/05/16 02:59:11;;;;;;;8.40;1.00;;;7.10;99.90;;;;;;5091624;28;20020;-68
2023/05/16 03:02:27;;;;;;;10.98;1.17;;;7.10;99.90;;;;;;5088829;28;20435;-68
2023/05/16 03:04:56;;;;;;;7.43;1.10;;;7.10;99.90;;;;;;5095634;28;20659;-68
2023/05/16 03:07:21;;;;;;;13.15;2.35;;;7.10;99.90;;;;;;5087654;28;20040;-67
2023/05/16 03:09:50;;;;;;;11.23;1.70;;;7.10;99.90;;;;;;5093731;28;20510;-69
2023/05/16 03:12:21;;;;;;;6.00;1.55;;;7.00;99.90;;;;;;5097769;28;20426;-70
2023/05/16 03:14:50;;;;;;;7.43;0.80;;;7.00;99.90;;;;;;5095807;28;20017;-70
2023/05/16 03:17:24;;;;;;;12.77;1.20;;;7.00;99.90;;;;;;5090530;28;20040;-69
2023/05/16 03:19:53;;;;;;;6.28;0.88;;;7.00;99.90;;;;;;5094975;28;20046;-70
2023/05/16 03:22:19;;;;;;;6.18;1.73;;;7.00;99.90;;;;;;5086874;28;20063;-69
2023/05/16 03:24:47;;;;;;;8.05;0.80;;;7.00;99.90;;;;;;5090643;28;20791;-70
2023/05/16 03:27:19;;;;;;;7.60;1.25;;;7.00;99.90;;;;;;5092560;28;20400;-69
2023/05/16 03:29:45;;;;;;;14.95;1.63;;;7.00;99.90;;;;;;5092194;28;20119;-69
2023/05/16 03:32:19;;;;;;;5.82;0.73;;;7.00;99.90;;;;;;5085389;28;20149;-68
2023/05/16 03:34:45;;;;;;;13.07;1.48;;;6.90;99.90;;;;;;5092070;28;20480;-69
2023/05/16 03:37:13;;;;;;;9.57;1.15;;;6.90;99.90;;;;;;5090272;28;20032;-69
2023/05/16 03:39:39;;;;;;;5.45;1.20;;;6.90;99.90;;;;;;5096022;28;20062;-69
2023/05/16 03:42:08;;;;;;;5.32;1.20;;;6.90;99.90;;;;;;5091914;28;20056;-69
2023/05/16 03:44:33;;;;;;;7.18;1.63;;;6.90;99.90;;;;;;5093323;28;20387;-68
2023/05/16 03:46:59;;;;;;;3.38;1.10;;;6.90;99.90;;;;;;5090950;28;20035;-70
2023/05/16 03:49:28;;;;;;;6.78;1.20;;;6.90;99.90;;;;;;5089775;28;20028;-67
2023/05/16 03:51:54;;;;;;;7.10;1.23;;;6.80;99.90;;;;;;5092715;28;20046;-67
2023/05/16 03:54:20;;;;;;;6.82;1.08;;;6.80;99.90;;;;;;5094284;28;20032;-68
2023/05/16 03:56:49;;;;;;;8.52;0.90;;;6.80;99.90;;;;;;5092176;28;20525;-67
2023/05/16 03:59:14;;;;;;;6.50;0.95;;;6.80;99.90;;;;;;5089438;28;20028;-68
2023/05/16 04:01:43;;;;;;;16.33;2.45;;;6.80;99.90;;;;;;5096866;28;20039;-68
2023/05/16 04:04:08;;;;;;;5.28;2.15;;;6.90;99.90;;;;;;5092425;28;20043;-68
2023/05/16 04:06:34;;;;;;;10.52;1.20;;;6.90;99.90;;;;;;5093061;28;20040;-70
2023/05/16 04:09:02;;;;;;;6.40;1.20;;;6.90;99.90;;;;;;5091752;28;20070;-69
2023/05/16 04:11:28;;;;;;;3.90;0.98;;;6.90;99.90;;;;;;5090981;28;20039;-68
2023/05/16 04:13:54;;;;;;;8.05;0.73;;;6.90;99.90;;;;;;5090485;28;20032;-68
2023/05/16 04:16:23;;;;;;;8.95;1.50;;;6.90;99.90;;;;;;5092230;28;20074;-68
2023/05/16 04:18:51;;;;;;;4.80;1.05;;;6.90;99.90;;;;;;5093644;28;20031;-68
2023/05/16 04:21:20;;;;;;;5.35;1.48;;;6.90;99.90;;;;;;5087783;28;20647;-70
2023/05/16 04:23:45;;;;;;;13.77;1.60;;;6.90;99.90;;;;;;5093129;28;20047;-68
2023/05/16 04:26:11;;;;;;;3.90;1.00;;;7.10;99.90;;;;;;5086550;28;20032;-69
2023/05/16 04:28:37;;;;;;;8.27;1.13;;;7.10;99.90;;;;;;5091777;28;20036;-70
2023/05/16 04:31:02;;;;;;;5.72;1.50;;;7.20;99.90;;;;;;5094140;28;20150;-68
2023/05/16 04:33:28;;;;;;;17.90;1.50;;;7.30;99.90;;;;;;5088703;28;20594;-68
2023/05/16 04:35:53;;;;;;;7.25;1.02;;;7.30;99.90;;;;;;5087647;28;20055;-68
2023/05/16 04:38:19;;;;;;;11.82;1.45;;;7.30;99.90;;;;;;5093375;28;20112;-68
2023/05/16 04:40:45;;;;;;;11.45;1.10;;;7.40;99.90;;;;;;5096750;28;20051;-68
2023/05/16 04:43:10;;;;;;;9.55;1.27;;;7.40;99.90;;;;;;5094981;28;20112;-69
2023/05/16 04:45:36;;;;;;;9.25;1.63;;;7.50;99.90;;;;;;5093407;28;20063;-68
2023/05/16 04:48:02;;;;;;;8.00;1.38;;;7.50;99.90;;;;;;5096244;28;20122;-68
2023/05/16 04:50:28;;;;;;;15.43;1.17;;;7.50;99.90;;;;;;5092660;28;20055;-68
2023/05/16 04:52:53;;;;;;;5.55;1.00;;;7.60;99.90;;;;;;5098379;28;20025;-68
2023/05/16 04:55:22;;;;;;;5.50;0.75;;;7.60;99.90;;;;;;5096063;28;20048;-68
2023/05/16 04:57:50;;;;;;;11.15;1.15;;;7.70;99.90;;;;;;5085619;28;20038;-68
2023/05/16 05:00:16;;;;;;;7.10;1.20;;;7.70;99.90;;;;;;5087658;28;20032;-68
2023/05/16 05:02:42;;;;;;;14.70;2.92;;;7.80;99.90;;;;;;5093858;28;20115;-68
2023/05/16 05:05:08;;;;;;;7.60;1.23;;;7.90;99.90;;;;;;5090765;28;20036;-69
2023/05/16 05:07:37;;;;;;;5.55;0.85;;;7.90;99.90;;;;;;5092305;28;20035;-68
2023/05/16 05:10:02;;;;;;;6.55;0.88;;;8.00;99.90;;;;;;5091594;28;20393;-69
2023/05/16 05:12:28;;;;;;;8.10;1.95;;;8.00;99.90;;;;;;5093178;28;20040;-72
2023/05/16 05:14:54;;;;;;;2.92;0.40;;;8.10;99.90;;;;;;5089126;28;20073;-68
2023/05/16 05:17:20;;;;;;;5.63;1.23;;;8.10;99.90;;;;;;5091383;28;20035;-71
2023/05/16 05:19:47;;;;;;;8.32;1.75;;;8.20;99.90;;;;;;5090945;28;20028;-68
2023/05/16 05:22:13;;;;;;;12.98;1.15;;;8.30;99.90;;;;;;5094105;28;20032;-69
2023/05/16 05:24:38;;;;;;;6.80;1.00;;;8.30;99.90;;;;;;5090047;28;20431;-68
2023/05/16 05:27:04;;;;;;;6.15;0.70;;;8.40;99.90;;;;;;5084946;28;20040;-70
2023/05/16 05:29:30;;;;;;;7.50;0.85;;;8.50;99.90;;;;;;5094282;28;20028;-68
2023/05/16 05:31:55;;;;;;;5.97;0.80;;;8.60;99.90;;;;;;5092970;28;20465;-69
2023/05/16 05:34:24;;;;;;;8.80;0.80;;;8.70;99.90;;;;;;5089807;28;20437;-70
2023/05/16 05:36:49;;;;;;;6.47;1.10;;;8.80;99.90;;;;;;5090120;28;20067;-68
2023/05/16 05:39:15;;;;;;;3.97;1.20;;;9.00;99.90;;;;;;5087237;28;20590;-68
2023/05/16 05:41:41;;;;;;;6.32;0.90;;;9.30;99.90;;;;;;5088643;28;20060;-68
2023/05/16 05:44:07;;;;;;;5.68;0.70;;;9.70;99.90;;;;;;5085084;28;20051;-69
2023/05/16 05:46:33;;;;;;;6.22;0.80;;;10.00;99.90;;;;;;5095145;28;20036;-68
2023/05/16 05:48:59;;;;;;;4.65;0.60;;;10.50;99.90;;;;;;5092839;27;20491;-69
2023/05/16 05:51:24;;;;;;;4.32;0.55;;;11.00;99.90;;;;;;5087686;28;20032;-68
2023/05/16 05:53:51;;;;;;;4.78;1.02;;;11.40;99.90;;;;;;5095134;28;20050;-70
2023/05/16 05:56:17;;;;;;;4.72;0.40;;;12.30;99.90;;;;;;5088114;28;20042;-68
2023/05/16 05:58:42;;;;;;;3.22;0.50;;;12.70;99.90;;;;;;5090867;28;20035;-70
2023/05/16 06:01:10;;;;;;;5.03;0.73;;;13.30;99.90;;;;;;5092720;28;20047;-70
2023/05/16 06:03:38;;;;;;;6.45;1.02;;;14.20;99.90;;;;;;5095009;28;20123;-68
2023/05/16 06:06:04;;;;;;;2.97;0.77;;;15.40;99.90;;;;;;5087596;28;20127;-69
2023/05/16 06:08:30;;;;;;;8.18;1.00;;;16.30;99.90;;;;;;5089626;28;20115;-70
2023/05/16 06:10:55;;;;;;;2.63;0.80;;;17.00;99.90;;;;;;5092537;28;20153;-71
2023/05/16 06:13:21;;;;;;;5.80;0.63;;;17.10;99.90;;;;;;5087300;28;20112;-69
2023/05/16 06:15:51;;;;;;;7.00;1.10;;;17.30;99.90;;;;;;5089104;28;20044;-72
2023/05/16 06:18:22;;;;;;;5.97;0.88;;;17.80;99.80;;;;;;5092414;28;20310;-72
2023/05/16 06:20:48;;;;;;;5.78;1.13;;;18.20;99.20;;;;;;5088893;28;20020;-70
2023/05/16 06:23:16;;;;;;;5.05;0.93;;;18.70;98.60;;;;;;5083399;28;20051;-72
2023/05/16 06:25:49;;;;;;;6.63;0.90;;;19.20;98.30;;;;;;5086829;28;20024;-69
2023/05/16 06:28:15;;;;;;;2.78;0.70;;;20.30;96.60;;;;;;5086364;27;20038;-72
2023/05/16 06:30:43;;;;;;;10.93;1.23;;;20.80;95.40;;;;;;5093933;28;20028;-71
2023/05/16 06:33:09;;;;;;;3.80;0.50;;;21.40;95.10;;;;;;5089223;28;20028;-71
2023/05/16 06:35:40;;;;;;;3.13;1.05;;;22.20;94.40;;;;;;5089713;28;20042;-73
2023/05/16 06:38:06;;;;;;;6.60;1.08;;;22.70;92.70;;;;;;5092618;28;20128;-71
2023/05/16 06:40:37;;;;;;;5.90;1.38;;;22.90;92.40;;;;;;5091525;28;20048;-70
2023/05/16 06:43:03;;;;;;;4.00;0.85;;;23.20;91.30;;;;;;5093494;28;20035;-71
2023/05/16 06:45:28;;;;;;;4.65;0.98;;;23.00;90.90;;;;;;5092972;28;20031;-71
2023/05/16 06:47:55;;;;;;;7.15;1.02;;;23.10;90.10;;;;;;5086056;28;20035;-70
2023/05/16 06:50:21;;;;;;;6.80;1.02;;;23.20;90.20;;;;;;5085427;28;20048;-72
2023/05/16 06:52:50;;;;;;;4.07;0.98;;;23.30;89.80;;;;;;5088899;28;20039;-70
2023/05/16 06:55:15;;;;;;;5.18;1.10;;;23.20;90.10;;;;;;5087561;28;20046;-69
2023/05/16 06:57:41;;;;;;;5.05;0.93;;;23.20;90.10;;;;;;5085232;28;20036;-71
2023/05/16 07:00:07;;;;;;;6.43;1.48;;;23.40;89.10;;;;;;5089631;28;20103;-71
2023/05/16 07:02:33;;;;;;;8.18;0.80;;;23.60;86.80;;;;;;5090856;28;20043;-70
2023/05/16 07:04:58;;;;;;;3.70;1.00;;;24.10;87.50;;;;;;5088195;28;20511;-69
2023/05/16 07:07:30;;;;;;;9.55;1.52;;;24.00;84.50;;;;;;5090641;28;20396;-70
2023/05/16 07:09:55;;;;;;;6.00;0.60;;;23.10;86.10;;;;;;5090940;28;20191;-69
2023/05/16 07:12:21;;;;;;;3.78;0.82;;;21.60;88.00;;;;;;5083800;28;20562;-71
2023/05/16 07:14:46;;;;;;;3.78;0.80;;;21.30;89.90;;;;;;5082397;28;20036;-69
2023/05/16 07:17:12;;;;;;;7.00;1.20;;;20.90;90.10;;;;;;5088365;28;20116;-71
2023/05/16 07:19:40;;;;;;;3.67;0.75;;;20.30;90.30;;;;;;5090943;28;20658;-69
2023/05/16 07:22:06;;;;;;;5.50;0.50;;;19.10;91.00;;;;;;5084456;28;20038;-69
2023/05/16 07:24:31;;;;;;;4.25;0.45;;;18.10;92.30;;;;;;5088264;28;20028;-70
2023/05/16 07:26:57;;;;;;;1.75;0.38;;;17.50;93.10;;;;;;5086686;28;20028;-71
2023/05/16 07:29:22;;;;;;;3.55;0.70;;;18.00;93.20;;;;;;5084841;28;20040;-71
2023/05/16 07:31:48;;;;;;;5.47;0.40;;;19.00;92.50;;;;;;5089037;28;20039;-71
2023/05/16 07:34:13;;;;;;;3.65;1.02;;;20.30;91.20;;;;;;5082714;28;20031;-70
2023/05/16 07:36:39;;;;;;;4.88;0.55;;;20.10;90.50;;;;;;5085345;28;20171;-71
2023/05/16 07:39:05;;;;;;;2.70;0.63;;;19.20;90.90;;;;;;5084318;28;20028;-70
2023/05/16 07:41:40;;;;;;;3.97;0.68;;;18.30;92.10;;;;;;5083927;28;20043;-72
2023/05/16 07:44:05;;;;;;;4.10;0.50;;;18.70;92.60;;;;;;5083991;28;20028;-70
2023/05/16 07:46:31;;;;;;;5.50;0.88;;;18.80;92.50;;;;;;5085097;28;20028;-71
2023/05/16 07:48:56;;;;;;;4.45;0.73;;;19.30;91.90;;;;;;5083820;28;20044;-70
2023/05/16 07:51:25;;;;;;;7.88;0.93;;;18.70;91.70;;;;;;5086491;28;20054;-69
2023/05/16 07:53:50;;;;;;;4.65;0.98;;;18.10;92.80;;;;;;5083920;28;20036;-70
2023/05/16 07:56:19;;;;;;;5.55;0.63;;;17.40;93.80;;;;;;5082948;28;20047;-70
2023/05/16 07:58:45;;;;;;;4.57;0.60;;;16.80;94.70;;;;;;5085052;28;20051;-69
2023/05/16 08:01:11;;;;;;;1.60;0.20;;;16.30;94.50;;;;;;5084869;28;20044;-69
2023/05/16 08:03:36;;;;;;;4.32;0.70;;;15.80;95.40;;;;;;5085221;28;20113;-71
2023/05/16 08:06:02;;;;;;;7.75;1.33;;;15.70;95.70;;;;;;5085865;28;20074;-71
2023/05/16 08:08:27;;;;;;;5.07;0.70;;;15.40;95.70;;;;;;5079744;28;20051;-71
2023/05/16 08:10:53;;;;;;;6.25;1.25;;;15.10;96.20;;;;;;5088956;28;20039;-71
2023/05/16 08:13:22;;;;;;;3.05;0.35;;;15.00;96.10;;;;;;5085247;27;20036;-70
2023/05/16 08:15:47;;;;;;;4.82;0.47;;;15.30;96.60;;;;;;5088570;28;20048;-69
2023/05/16 08:18:14;;;;;;;0.55;0.10;;;15.50;96.10;;;;;;5088324;28;20486;-71
2023/05/16 08:20:41;;;;;;;7.18;0.50;;;15.50;94.60;;;;;;5094973;28;20475;-71
2023/05/16 08:23:07;;;;;;;4.28;0.82;;;15.60;94.70;;;;;;5087624;28;20047;-72
2023/05/16 08:25:33;;;;;;;2.65;0.30;;;15.70;94.30;;;;;;5087974;28;20028;-69
2023/05/16 08:28:00;;;;;;;0.73;0.20;;;15.70;94.00;;;;;;5089824;28;20294;-69
2023/05/16 08:30:27;;;;;;;5.00;0.30;;;15.50;94.50;;;;;;5087980;28;20074;-71
2023/05/16 08:32:53;;;;;;;2.58;0.20;;;15.50;95.80;;;;;;5088928;28;20028;-70
2023/05/16 08:35:21;;;;;;;8.15;0.70;;;15.70;95.10;;;;;;5086677;28;20388;-70
2023/05/16 08:37:49;;;;;;;2.47;0.57;;;15.70;95.20;;;;;;5083975;28;20539;-72
2023/05/16 08:40:15;;;;;;;4.72;0.55;;;15.50;95.90;;;;;;5084994;28;20051;-69
2023/05/16 08:42:44;;;;;;;2.85;0.43;;;15.70;96.90;;;;;;5088272;28;20044;-70
2023/05/16 08:45:10;;;;;;;0.43;0.10;;;15.70;96.20;;;;;;5089576;28;20151;-71
2023/05/16 08:47:40;;;;;;;3.00;0.38;;;15.80;95.60;;;;;;5090022;28;20568;-72
2023/05/16 08:50:08;;;;;;;;;;;15.90;95.00;;;;;;5085621;28;20139;-69
2023/05/16 08:52:36;;;;;;;1.95;0.45;;;15.90;93.80;;;;;;5091976;28;19912;-69
2023/05/16 08:55:08;;;;;;;5.47;0.60;;;15.70;93.90;;;;;;5087086;28;20058;-74
2023/05/16 08:57:34;;;;;;;2.35;0.73;;;15.70;94.30;;;;;;5090707;28;20195;-71
2023/05/16 09:00:00;;;;;;;3.88;0.43;;;15.70;94.20;;;;;;5089751;28;20032;-70
2023/05/16 09:02:27;;;;;;;2.47;0.98;;;15.50;94.30;;;;;;5086402;28;20024;-70
2023/05/16 09:04:56;;;;;;;3.10;0.52;;;15.40;93.90;;;;;;5086560;28;20039;-70
2023/05/16 09:07:22;;;;;;;5.13;0.40;;;15.40;94.50;;;;;;5086293;28;20504;-71
2023/05/16 09:09:48;;;;;;;2.15;0.47;;;15.50;94.80;;;;;;5086695;28;20040;-70
2023/05/16 09:12:13;;;;;;;2.78;0.50;;;15.80;95.60;;;;;;5086938;28;20024;-70
2023/05/16 09:14:39;;;;;;;5.82;1.23;;;16.20;94.70;;;;;;5086316;28;20036;-70
2023/05/16 09:17:06;;;;;;;2.83;0.40;;;16.40;94.60;;;;;;5087554;28;20028;-71
2023/05/16 09:19:40;;;;;;;4.47;0.40;;;16.30;93.90;;;;;;5092236;28;20071;-69
2023/05/16 09:22:12;;;;;;;5.57;0.20;;;16.30;93.50;;;;;;5086694;28;20119;-69
2023/05/16 09:24:45;;;;;;;3.53;0.32;;;16.20;93.80;;;;;;5086839;28;21556;-70
2023/05/16 09:27:15;;;;;;;5.75;0.30;;;15.90;94.70;;;;;;5091783;28;20039;-70
2023/05/16 09:29:50;;;;;;;4.67;0.80;;;15.80;95.90;;;;;;5087705;28;20043;-69
2023/05/16 09:32:16;;;;;;;1.75;0.20;;;15.90;95.10;;;;;;5116773;27;20374;-72
2023/05/16 09:34:47;;;;;;;3.65;0.60;;;16.00;95.00;;;;;;5090194;28;21479;-71
2023/05/16 09:37:14;;;;;;;3.00;0.38;;;16.10;94.40;;;;;;5088369;28;20024;-71
2023/05/16 09:39:49;;;;;;;3.03;0.28;;;15.90;94.50;;;;;;5082764;28;20059;-69
2023/05/16 09:42:19;;;;;;;5.18;0.57;;;15.70;95.20;;;;;;5088060;28;20510;-70
2023/05/16 09:44:46;;;;;;;4.03;0.75;;;15.60;95.50;;;;;;5089194;28;20035;-70
2023/05/16 09:47:16;;;;;;;3.55;0.45;;;15.70;95.50;;;;;;5088752;28;20123;-69
2023/05/16 09:49:45;;;;;;;2.67;0.50;;;16.00;95.40;;;;;;5086604;28;20035;-72
2023/05/16 09:52:11;;;;;;;3.78;0.55;;;16.20;95.80;;;;;;5087008;28;20032;-69
2023/05/16 09:54:40;;;;;;;2.42;0.50;;;16.20;94.50;;;;;;5090795;28;20139;-70
2023/05/16 09:57:06;;;;;;;3.33;0.50;;;16.10;94.90;;;;;;5085162;28;20630;-72
2023/05/16 09:59:52;;;;;;;1.75;0.28;;;16.00;94.40;;;;;;5090760;28;20046;-69
2023/05/16 10:02:18;;;;;;;1.38;0.20;;;16.10;94.30;;;;;;5080430;28;20070;-70
2023/05/16 10:04:47;;;;;;;3.08;0.65;;;16.00;93.80;;;;;;5087768;28;20032;-69
2023/05/16 10:07:16;;;;;;;5.00;0.70;;;16.30;94.70;;;;;;5088049;28;20128;-73
2023/05/16 10:09:46;;;;;;;2.70;1.05;;;16.60;94.80;;;;;;5086784;28;20057;-70
2023/05/16 10:12:14;;;;;;;1.65;0.32;;;16.50;93.60;;;;;;5075940;28;20162;-70
2023/05/16 10:14:40;;;;;;;3.50;0.30;;;16.40;93.90;;;;;;5081503;28;20035;-69
2023/05/16 10:17:09;;;;;;;4.30;0.50;;;16.40;93.70;;;;;;5084333;28;20176;-70
2023/05/16 10:19:39;;;;;;;4.30;0.30;;;16.40;94.00;;;;;;5082881;28;20036;-71
2023/05/16 10:22:05;;;;;;;1.58;0.17;;;16.30;93.80;;;;;;5080668;28;20023;-72
2023/05/16 10:24:47;;;;;;;2.88;0.20;;;16.20;93.10;;;;;;5082131;28;20024;-70
2023/05/16 10:27:16;;;;;;;4.55;0.60;;;16.00;93.80;;;;;;5082167;28;20134;-70
2023/05/16 10:29:43;;;;;;;2.30;0.30;;;15.80;93.90;;;;;;5084785;28;20051;-70
2023/05/16 10:32:09;;;;;;;0.75;0.25;;;15.80;94.00;;;;;;5083095;28;20106;-70
2023/05/16 10:34:38;;;;;;;2.72;0.40;;;16.00;94.20;;;;;;5081765;28;20054;-69
2023/05/16 10:37:05;;;;;;;2.38;0.28;;;16.10;93.80;;;;;;5083673;28;20516;-70
2023/05/16 10:39:31;;;;;;;2.17;0.20;;;16.10;93.30;;;;;;5085356;28;20035;-70
2023/05/16 10:41:58;;;;;;;2.65;0.50;;;16.10;93.50;;;;;;5083637;28;20396;-70
2023/05/16 10:44:25;;;;;;;3.72;0.52;;;16.00;93.40;;;;;;5083320;28;20224;-69
2023/05/16 10:46:50;;;;;;;6.05;0.40;;;16.00;93.00;;;;;;5088532;28;20027;-69
2023/05/16 10:49:24;;;;;;;3.00;0.40;;;16.00;92.90;;;;;;5082703;28;20086;-69
2023/05/16 10:52:31;;;;;;;2.75;0.32;;;15.80;93.20;;;;;;5089351;28;20035;-70
2023/05/16 10:55:03;;;;;;;3.28;0.55;;;15.90;94.00;;;;;;5075669;28;20036;-68
2023/05/16 10:57:33;;;;;;;2.05;0.20;;;15.90;93.90;;;;;;5090065;28;20074;-68
2023/05/16 11:00:00;;;;;;;2.05;0.38;;;16.20;94.60;;;;;;5084402;28;20035;-71
2023/05/16 11:02:38;;;;;;;1.75;0.50;;;16.20;93.00;;;;;;5083701;28;20167;-71
2023/05/16 11:05:05;;;;;;;0.90;0.25;;;16.20;93.40;;;;;;5092024;28;20047;-69
2023/05/16 11:07:33;;;;;;;4.88;0.40;;;16.40;93.90;;;;;;5086189;28;20035;-70
2023/05/16 11:10:15;;;;;;;3.33;0.65;;;16.60;94.30;;;;;;5085365;28;20040;-71
2023/05/16 11:12:48;;;;;;;3.90;0.32;;;16.80;93.40;;;;;;5084330;28;20031;-69
2023/05/16 11:15:26;;;;;;;2.33;0.25;;;16.80;93.70;;;;;;5084182;28;20155;-71
2023/05/16 11:18:14;;;;;;;2.05;0.43;;;16.90;93.70;;;;;;5084847;28;20039;-72
2023/05/16 11:20:40;;;;;;;3.53;0.30;;;16.90;92.60;;;;;;5083950;28;20487;-69
2023/05/16 11:23:15;;;;;;;3.22;0.22;;;16.80;92.00;;;;;;5088381;28;20032;-70
2023/05/16 11:25:45;;;;;;;1.88;0.47;;;16.80;92.00;;;;;;5087785;28;20071;-70
2023/05/16 11:28:14;;;;;;;3.63;0.40;;;16.70;92.00;;;;;;5085354;28;20061;-72
2023/05/16 11:30:45;;;;;;;2.75;0.30;;;16.30;92.40;;;;;;5083958;28;20266;-70
2023/05/16 11:33:12;;;;;;;4.18;0.30;;;16.30;93.60;;;;;;5087291;28;20060;-69
2023/05/16 11:35:42;;;;;;;1.48;0.22;;;16.20;94.50;;;;;;5090717;28;20027;-69
2023/05/16 11:38:15;;;;;;;6.63;0.85;;;16.40;95.30;;;;;;5086896;28;20038;-70
2023/05/16 11:40:43;;;;;;;1.50;0.30;;;16.60;95.00;;;;;;5086334;28;20036;-69
2023/05/16 11:43:08;;;;;;;3.70;0.43;;;16.70;94.60;;;;;;5087213;28;20115;-69
2023/05/16 11:45:40;;;;;;;4.18;0.30;;;16.80;93.60;;;;;;5088008;28;20123;-68
2023/05/16 11:48:08;;;;;;;2.85;0.40;;;16.80;94.00;;;;;;5087698;28;20054;-72
2023/05/16 11:50:35;;;;;;;3.55;0.30;;;16.90;94.70;;;;;;5093656;28;20039;-70
2023/05/16 11:53:00;;;;;;;2.47;0.32;;;17.00;94.30;;;;;;5088256;28;20093;-71
2023/05/16 11:55:29;;;;;;;2.42;0.20;;;16.90;94.50;;;;;;5089877;28;20032;-71
2023/05/16 11:57:59;;;;;;;4.13;0.68;;;16.80;94.00;;;;;;5091571;28;20043;-70
2023/05/16 12:00:26;;;;;;;4.20;0.30;;;16.80;94.70;;;;;;5088220;28;20043;-71
2023/05/16 12:02:53;;;;;;;1.55;0.35;;;16.70;93.20;;;;;;5091945;28;20028;-70
2023/05/16 12:05:24;;;;;;;2.95;0.40;;;16.50;93.00;;;;;;5086021;28;20028;-72
2023/05/16 12:07:53;;;;;;;8.10;0.52;;;16.50;93.80;;;;;;5093727;28;20032;-71
2023/05/16 12:10:18;;;;;;;3.17;0.28;;;16.40;92.90;;;;;;5082987;28;20072;-71
2023/05/16 12:12:47;;;;;;;5.00;0.57;;;16.40;93.50;;;;;;5088813;28;20076;-69
2023/05/16 12:15:13;;;;;;;5.03;0.40;;;16.30;93.40;;;;;;5086907;28;20101;-68
2023/05/16 12:17:46;;;;;;;4.25;0.30;;;16.50;93.90;;;;;;5093194;28;20549;-70
2023/05/16 12:20:15;;;;;;;5.28;0.40;;;16.50;93.00;;;;;;5090209;27;20908;-69
2023/05/16 12:22:41;;;;;;;2.25;0.30;;;16.50;92.90;;;;;;5090456;28;20040;-71
2023/05/16 12:25:26;;;;;;;2.05;0.30;;;16.30;93.40;;;;;;5090393;27;20032;-69
2023/05/16 12:27:54;;;;;;;6.38;0.70;;;16.30;92.80;;;;;;5092524;28;20038;-73
2023/05/16 12:30:22;;;;;;;5.38;0.45;;;16.10;93.30;;;;;;5089112;28;20707;-71
2023/05/16 12:33:08;;;;;;;3.13;0.30;;;16.00;94.10;;;;;;5093555;28;20066;-70
2023/05/16 12:35:42;;;;;;;5.45;0.30;;;16.00;94.90;;;;;;5091112;28;20057;-70
2023/05/16 12:38:13;;;;;;;3.78;0.57;;;16.10;94.60;;;;;;5091493;28;20035;-70
2023/05/16 12:40:41;;;;;;;2.40;0.93;;;16.10;94.80;;;;;;5089257;28;20039;-70
2023/05/16 12:43:14;;;;;;;3.45;0.55;;;16.20;95.00;;;;;;5091010;28;20035;-70
2023/05/16 12:45:41;;;;;;;4.72;0.60;;;16.40;93.80;;;;;;5086871;28;20068;-70
2023/05/16 12:48:15;;;;;;;1.83;0.20;;;16.50;94.50;;;;;;5089675;28;20373;-69
2023/05/16 12:50:41;;;;;;;4.40;0.77;;;16.70;93.00;;;;;;5090223;28;20100;-69
2023/05/16 12:53:14;;;;;;;2.17;0.40;;;16.70;93.50;;;;;;5094808;28;20036;-70
2023/05/16 12:55:40;;;;;;;4.15;0.40;;;16.50;94.20;;;;;;5090744;28;20110;-70
2023/05/16 12:58:06;;;;;;;1.10;0.22;;;16.50;93.60;;;;;;5085712;28;20027;-69